createdAt,value
2018-08-23T00:00:58.381Z,39.40
2018-08-23T00:01:58.374Z,38.40
2018-08-23T00:02:58.415Z,42.00
2018-08-23T00:03:58.398Z,42.10
2018-08-23T00:04:58.348Z,41.00
2018-08-23T00:05:58.324Z,42.90
2018-08-23T00:06:58.334Z,40.90
2018-08-23T00:07:58.331Z,42.70
2018-08-23T00:08:58.310Z,43.40
2018-08-23T00:09:58.325Z,40.50
2018-08-23T00:10:58.275Z,39.40
2018-08-23T00:11:58.262Z,39.70
2018-08-23T00:12:58.268Z,41.50
2018-08-23T00:13:58.269Z,42.60
2018-08-23T00:14:58.243Z,40.50
2018-08-23T00:15:58.225Z,40.30
2018-08-23T00:16:58.204Z,38.80
2018-08-23T00:17:58.202Z,40.70
2018-08-23T00:18:58.200Z,41.30
2018-08-23T00:19:58.208Z,43.00
2018-08-23T00:20:58.163Z,39.20
2018-08-23T00:21:58.149Z,42.00
2018-08-23T00:22:58.135Z,41.80
2018-08-23T00:23:58.127Z,41.20
2018-08-23T00:24:58.143Z,42.00
2018-08-23T00:25:58.146Z,39.20
2018-08-23T00:26:58.120Z,40.30
2018-08-23T00:27:58.085Z,42.20
2018-08-23T00:28:58.071Z,40.10
2018-08-23T00:29:58.062Z,41.80
2018-08-23T00:30:58.059Z,40.00
2018-08-23T00:31:58.075Z,39.80
2018-08-23T00:32:58.036Z,40.90
2018-08-23T00:33:58.022Z,40.20
2018-08-23T00:34:58.012Z,41.90
2018-08-23T00:35:58.025Z,43.80
2018-08-23T00:36:57.985Z,42.20
2018-08-23T00:37:57.998Z,38.40
2018-08-23T00:38:57.968Z,39.00
2018-08-23T00:39:57.962Z,39.50
2018-08-23T00:40:57.974Z,40.80
2018-08-23T00:41:57.933Z,43.10
2018-08-23T00:42:57.930Z,43.00
2018-08-23T00:43:57.944Z,41.50
2018-08-23T00:44:57.898Z,41.80
2018-08-23T00:45:57.884Z,40.70
2018-08-23T00:46:57.897Z,43.10
2018-08-23T00:47:57.871Z,44.10
2018-08-23T00:48:57.861Z,44.70
2018-08-23T00:49:57.877Z,43.40
2018-08-23T00:50:57.833Z,44.20
2018-08-23T00:51:57.874Z,43.40
2018-08-23T00:52:57.818Z,43.40
2018-08-23T00:53:58.319Z,42.90
2018-08-23T00:54:57.798Z,43.20
2018-08-23T00:55:57.820Z,44.00
2018-08-23T00:56:57.771Z,40.60
2018-08-23T00:57:57.777Z,42.80
2018-08-23T00:58:57.746Z,42.30
2018-08-23T00:59:57.739Z,41.60
2018-08-23T01:00:57.725Z,42.70
2018-08-23T01:01:57.751Z,44.10
2018-08-23T01:02:57.739Z,43.30
2018-08-23T01:03:57.703Z,44.70
2018-08-23T01:04:57.692Z,44.40
2018-08-23T01:05:57.674Z,43.50
2018-08-23T01:06:57.664Z,45.60
2018-08-23T01:07:57.689Z,45.10
2018-08-23T01:08:57.659Z,44.30
2018-08-23T01:09:57.627Z,45.20
2018-08-23T01:10:57.637Z,45.20
2018-08-23T01:11:57.615Z,45.30
2018-08-23T01:12:57.607Z,46.70
2018-08-23T01:13:57.660Z,46.20
2018-08-23T01:14:57.578Z,45.40
2018-08-23T01:15:57.565Z,44.60
2018-08-23T01:16:57.563Z,44.40
2018-08-23T01:17:57.541Z,47.00
2018-08-23T01:18:57.529Z,46.60
2018-08-23T01:19:57.575Z,44.60
2018-08-23T01:20:57.507Z,50.30
2018-08-23T01:21:57.503Z,46.00
2018-08-23T01:22:57.488Z,46.10
2018-08-23T01:23:57.489Z,49.10
2018-08-23T01:24:57.466Z,47.90
2018-08-23T01:25:57.495Z,46.00
2018-08-23T01:26:57.451Z,48.70
2018-08-23T01:27:57.433Z,45.70
2018-08-23T01:28:57.427Z,43.00
2018-08-23T01:29:57.406Z,46.20
2018-08-23T01:30:57.398Z,46.60
2018-08-23T01:31:57.409Z,50.10
2018-08-23T01:32:57.410Z,49.40
2018-08-23T01:33:57.365Z,48.60
2018-08-23T01:34:57.358Z,47.10
2018-08-23T01:35:57.363Z,49.20
2018-08-23T01:36:57.332Z,48.80
2018-08-23T01:37:57.321Z,49.20
2018-08-23T01:38:57.324Z,47.50
2018-08-23T01:39:57.308Z,51.10
2018-08-23T01:40:57.326Z,46.60
2018-08-23T01:41:57.291Z,46.10
2018-08-23T01:42:57.273Z,45.20
2018-08-23T01:43:57.272Z,46.40
2018-08-23T01:44:57.256Z,50.30
2018-08-23T01:45:57.250Z,50.80
2018-08-23T01:46:57.309Z,51.50
2018-08-23T01:47:57.217Z,51.30
2018-08-23T01:48:57.241Z,49.60
2018-08-23T01:49:57.188Z,52.50
2018-08-23T01:50:57.185Z,49.60
2018-08-23T01:51:57.233Z,50.80
2018-08-23T01:52:57.181Z,50.30
2018-08-23T01:53:57.167Z,52.80
2018-08-23T01:54:57.145Z,50.40
2018-08-23T01:55:57.129Z,52.90
2018-08-23T01:56:57.136Z,53.20
2018-08-23T01:57:57.104Z,55.00
2018-08-23T01:58:57.166Z,55.70
2018-08-23T01:59:57.089Z,54.50
2018-08-23T02:00:57.073Z,54.80
2018-08-23T02:01:57.061Z,55.60
2018-08-23T02:02:57.050Z,55.50
2018-08-23T02:03:57.040Z,55.70
2018-08-23T02:04:57.068Z,56.50
2018-08-23T02:05:57.053Z,55.70
2018-08-23T02:06:57.003Z,56.90
2018-08-23T02:07:57.000Z,56.00
2018-08-23T02:08:56.983Z,55.80
2018-08-23T02:09:56.974Z,54.70
2018-08-23T02:10:56.987Z,56.30
2018-08-23T02:11:56.973Z,56.80
2018-08-23T02:12:56.989Z,58.00
2018-08-23T02:13:56.930Z,57.20
2018-08-23T02:14:56.919Z,55.70
2018-08-23T02:15:56.908Z,54.40
2018-08-23T02:16:56.893Z,55.60
2018-08-23T02:17:56.925Z,54.00
2018-08-23T02:18:56.898Z,54.40
2018-08-23T02:19:56.868Z,55.00
2018-08-23T02:20:56.849Z,54.40
2018-08-23T02:21:56.845Z,53.00
2018-08-23T02:22:56.826Z,54.00
2018-08-23T02:23:56.838Z,56.60
2018-08-23T02:24:56.845Z,56.60
2018-08-23T02:25:56.796Z,56.00
2018-08-23T02:26:56.785Z,56.10
2018-08-23T02:27:56.777Z,55.30
2018-08-23T02:28:56.761Z,53.10
2018-08-23T02:29:56.804Z,54.90
2018-08-23T02:30:56.745Z,55.10
2018-08-23T02:31:56.729Z,57.90
2018-08-23T02:32:56.720Z,56.80
2018-08-23T02:33:56.711Z,57.70
2018-08-23T02:34:56.723Z,57.50
2018-08-23T02:35:56.716Z,53.40
2018-08-23T02:36:56.677Z,55.30
2018-08-23T02:37:56.667Z,57.10
2018-08-23T02:38:56.648Z,58.40
2018-08-23T02:39:56.640Z,58.20
2018-08-23T02:40:56.648Z,59.30
2018-08-23T02:41:56.663Z,58.70
2018-08-23T02:42:56.604Z,58.40
2018-08-23T02:43:56.602Z,55.20
2018-08-23T02:44:56.618Z,57.00
2018-08-23T02:45:56.574Z,56.50
2018-08-23T02:46:56.564Z,57.20
2018-08-23T02:47:56.587Z,58.30
2018-08-23T02:48:56.539Z,57.00
2018-08-23T02:49:56.526Z,56.00
2018-08-23T02:50:56.535Z,57.40
2018-08-23T02:51:56.505Z,62.40
2018-08-23T02:52:56.496Z,58.70
2018-08-23T02:53:56.486Z,57.20
2018-08-23T02:54:56.492Z,56.60
2018-08-23T02:55:56.488Z,58.20
2018-08-23T02:56:56.446Z,59.90
2018-08-23T02:57:56.438Z,59.90
2018-08-23T02:58:56.425Z,55.70
2018-08-23T02:59:56.414Z,57.10
2018-08-23T03:00:56.478Z,60.60
2018-08-23T03:01:56.394Z,61.30
2018-08-23T03:02:56.381Z,62.60
2018-08-23T03:03:56.369Z,61.50
2018-08-23T03:04:56.359Z,62.50
2018-08-23T03:05:56.350Z,61.40
2018-08-23T03:06:56.375Z,63.80
2018-08-23T03:07:56.327Z,64.10
2018-08-23T03:08:56.312Z,64.70
2018-08-23T03:09:56.304Z,64.30
2018-08-23T03:10:56.290Z,64.80
2018-08-23T03:11:56.313Z,64.10
2018-08-23T03:12:56.267Z,63.20
2018-08-23T03:13:56.318Z,62.30
2018-08-23T03:14:56.249Z,62.10
2018-08-23T03:15:56.244Z,63.90
2018-08-23T03:16:56.226Z,64.50
2018-08-23T03:17:56.236Z,64.40
2018-08-23T03:18:56.219Z,65.50
2018-08-23T03:19:56.206Z,62.60
2018-08-23T03:20:56.180Z,65.30
2018-08-23T03:21:56.173Z,65.10
2018-08-23T03:22:56.194Z,63.10
2018-08-23T03:23:56.150Z,65.20
2018-08-23T03:24:56.152Z,63.80
2018-08-23T03:25:56.124Z,63.10
2018-08-23T03:26:56.118Z,63.50
2018-08-23T03:27:56.126Z,63.80
2018-08-23T03:28:56.096Z,63.70
2018-08-23T03:29:56.083Z,64.90
2018-08-23T03:30:56.101Z,67.10
2018-08-23T03:31:56.117Z,64.50
2018-08-23T03:32:56.083Z,68.80
2018-08-23T03:33:56.038Z,66.90
2018-08-23T03:34:56.047Z,63.60
2018-08-23T03:35:56.016Z,68.70
2018-08-23T03:36:56.013Z,66.50
2018-08-23T03:37:56.008Z,61.90
2018-08-23T03:38:55.999Z,63.00
2018-08-23T03:39:55.977Z,62.70
2018-08-23T03:40:55.962Z,62.90
2018-08-23T03:41:55.954Z,61.00
2018-08-23T03:42:55.941Z,61.30
2018-08-23T03:43:55.993Z,63.30
2018-08-23T03:44:55.922Z,63.20
2018-08-23T03:45:55.912Z,58.90
2018-08-23T03:46:55.901Z,59.30
2018-08-23T03:47:55.894Z,63.00
2018-08-23T03:48:55.878Z,61.50
2018-08-23T03:49:55.922Z,61.70
2018-08-23T03:50:55.855Z,64.80
2018-08-23T03:51:55.847Z,62.10
2018-08-23T03:52:55.839Z,63.10
2018-08-23T03:53:55.850Z,64.00
2018-08-23T03:54:55.842Z,64.10
2018-08-23T03:55:55.810Z,63.60
2018-08-23T03:56:55.799Z,63.90
2018-08-23T03:57:55.779Z,63.20
2018-08-23T03:58:55.770Z,61.60
2018-08-23T03:59:55.785Z,64.60
2018-08-23T04:00:55.767Z,58.60
2018-08-23T04:01:55.759Z,59.60
2018-08-23T04:02:55.733Z,62.90
2018-08-23T04:03:55.717Z,62.30
2018-08-23T04:04:55.708Z,63.70
2018-08-23T04:05:55.729Z,64.60
2018-08-23T04:06:55.704Z,68.20
2018-08-23T04:07:55.698Z,64.80
2018-08-23T04:08:55.661Z,60.50
2018-08-23T04:09:55.652Z,62.80
2018-08-23T04:10:55.665Z,60.60
2018-08-23T04:11:55.634Z,64.00
2018-08-23T04:12:55.622Z,62.40
2018-08-23T04:13:55.665Z,61.80
2018-08-23T04:14:55.598Z,62.50
2018-08-23T04:15:55.613Z,63.50
2018-08-23T04:16:55.577Z,64.00
2018-08-23T04:17:55.577Z,61.30
2018-08-23T04:18:55.557Z,60.90
2018-08-23T04:19:55.586Z,63.50
2018-08-23T04:20:55.536Z,61.80
2018-08-23T04:21:55.555Z,62.80
2018-08-23T04:22:55.587Z,61.60
2018-08-23T04:23:55.508Z,61.60
2018-08-23T04:24:55.492Z,65.40
2018-08-23T04:25:55.495Z,60.80
2018-08-23T04:26:55.470Z,64.50
2018-08-23T04:27:55.482Z,61.40
2018-08-23T04:28:55.445Z,61.60
2018-08-23T04:29:55.437Z,62.60
2018-08-23T04:30:55.421Z,63.00
2018-08-23T04:31:55.472Z,61.30
2018-08-23T04:32:55.421Z,62.00
2018-08-23T04:33:55.391Z,65.40
2018-08-23T04:34:55.388Z,63.40
2018-08-23T04:35:55.413Z,63.40
2018-08-23T04:36:55.362Z,68.60
2018-08-23T04:37:55.362Z,64.30
2018-08-23T04:38:55.339Z,64.70
2018-08-23T04:39:55.327Z,65.60
2018-08-23T04:40:55.329Z,67.00
2018-08-23T04:41:55.330Z,63.50
2018-08-23T04:42:55.381Z,64.80
2018-08-23T04:43:55.288Z,66.90
2018-08-23T04:44:55.282Z,70.60
2018-08-23T05:01:42.528Z,62.60
2018-08-23T05:02:42.062Z,62.20
2018-08-23T05:03:42.137Z,63.30
2018-08-23T05:04:42.041Z,64.20
2018-08-23T05:05:42.120Z,59.40
2018-08-23T05:06:42.000Z,60.70
2018-08-23T05:07:43.523Z,59.90
2018-08-23T05:08:41.984Z,61.80
2018-08-23T05:09:42.599Z,61.40
2018-08-23T05:10:41.946Z,61.60
2018-08-23T05:11:41.935Z,60.70
2018-08-23T05:12:41.998Z,58.70
2018-08-23T05:13:41.913Z,59.30
2018-08-23T05:14:41.899Z,57.00
2018-08-23T05:15:41.899Z,58.30
2018-08-23T05:16:41.920Z,57.50
2018-08-23T05:17:41.871Z,59.40
2018-08-23T05:18:41.879Z,61.70
2018-08-23T05:19:41.846Z,59.90
2018-08-23T05:20:41.844Z,63.80
2018-08-23T05:21:41.836Z,59.30
2018-08-23T05:22:41.857Z,37.90
2018-08-23T05:23:41.801Z,58.50
2018-08-23T05:24:41.805Z,61.40
2018-08-23T05:25:41.779Z,61.40
2018-08-23T05:26:41.787Z,63.10
2018-08-23T05:27:41.757Z,60.90
2018-08-23T05:28:41.745Z,60.10
2018-08-23T05:29:41.763Z,61.50
2018-08-23T05:30:41.765Z,62.50
2018-08-23T05:31:41.725Z,62.70
2018-08-23T05:32:41.705Z,62.80
2018-08-23T05:33:41.685Z,62.90
2018-08-23T05:34:41.694Z,60.60
2018-08-23T05:35:41.670Z,61.20
2018-08-23T05:36:41.716Z,63.30
2018-08-23T05:37:41.639Z,62.10
2018-08-23T05:38:41.636Z,59.30
2018-08-23T05:39:41.625Z,61.10
2018-08-23T05:40:41.623Z,63.40
2018-08-23T05:41:41.598Z,62.90
2018-08-23T05:42:41.609Z,61.60
2018-08-23T05:43:41.629Z,65.70
2018-08-23T05:44:41.593Z,62.60
2018-08-23T05:45:41.554Z,62.40
2018-08-23T05:46:41.546Z,61.70
2018-08-23T05:47:41.585Z,64.60
2018-08-23T05:48:41.531Z,61.80
2018-08-23T05:49:41.507Z,63.50
2018-08-23T05:50:41.515Z,62.90
2018-08-23T05:51:41.491Z,63.80
2018-08-23T05:52:41.501Z,63.20
2018-08-23T05:53:41.463Z,62.30
2018-08-23T05:54:41.463Z,63.10
2018-08-23T05:55:41.459Z,61.50
2018-08-23T05:56:41.460Z,62.70
2018-08-23T05:57:41.423Z,60.60
2018-08-23T05:58:41.412Z,59.30
2018-08-23T05:59:41.399Z,61.50
2018-08-23T06:00:41.396Z,63.50
2018-08-23T06:01:41.399Z,61.20
2018-08-23T06:02:41.371Z,58.80
2018-08-23T06:03:41.359Z,59.20
2018-08-23T06:04:41.346Z,60.30
2018-08-23T06:05:41.342Z,60.90
2018-08-23T06:06:41.361Z,60.30
2018-08-23T06:07:41.317Z,60.50
2018-08-23T06:08:41.307Z,59.80
2018-08-23T06:09:41.297Z,61.70
2018-08-23T06:10:41.284Z,60.10
2018-08-23T06:11:41.294Z,60.20
2018-08-23T06:12:41.312Z,61.00
2018-08-23T06:13:41.242Z,60.70
2018-08-23T06:14:41.237Z,62.50
2018-08-23T06:15:41.236Z,62.00
2018-08-23T06:16:41.234Z,62.20
2018-08-23T06:17:41.232Z,58.90
2018-08-23T06:18:41.201Z,60.10
2018-08-23T06:19:41.225Z,59.80
2018-08-23T06:20:41.170Z,60.40
2018-08-23T06:21:41.177Z,58.90
2018-08-23T06:22:41.143Z,61.00
2018-08-23T06:23:41.163Z,60.40
2018-08-23T06:24:41.134Z,61.10
2018-08-23T06:25:41.138Z,60.10
2018-08-23T06:26:41.104Z,61.00
2018-08-23T06:27:41.095Z,60.40
2018-08-23T06:28:41.110Z,61.40
2018-08-23T06:29:41.071Z,59.90
2018-08-23T06:30:41.092Z,59.10
2018-08-23T06:31:41.049Z,61.20
2018-08-23T06:32:41.081Z,58.70
2018-08-23T06:33:41.113Z,58.70
2018-08-23T06:34:41.035Z,59.60
2018-08-23T06:35:41.094Z,59.30
2018-08-23T06:36:40.993Z,61.70
2018-08-23T06:37:40.997Z,60.40
2018-08-23T06:38:41.011Z,59.40
2018-08-23T06:39:41.000Z,60.60
2018-08-23T06:40:40.948Z,62.80
2018-08-23T06:41:40.938Z,61.40
2018-08-23T06:42:40.924Z,61.70
2018-08-23T06:43:40.915Z,61.70
2018-08-23T06:44:41.004Z,62.50
2018-08-23T06:45:40.981Z,62.70
2018-08-23T06:46:40.882Z,61.40
2018-08-23T06:47:40.904Z,61.60
2018-08-23T06:48:40.876Z,62.10
2018-08-23T06:49:40.849Z,60.90
2018-08-23T06:50:40.866Z,60.80
2018-08-23T06:51:40.825Z,60.80
2018-08-23T06:52:40.814Z,58.60
2018-08-23T06:53:40.828Z,60.00
2018-08-23T06:54:40.806Z,57.70
2018-08-23T06:55:40.783Z,59.20
2018-08-23T06:56:40.903Z,58.30
2018-08-23T06:57:40.792Z,57.30
2018-08-23T06:58:40.780Z,58.30
2018-08-23T06:59:40.761Z,59.30
2018-08-23T07:00:40.730Z,58.60
2018-08-23T07:01:40.717Z,57.10
2018-08-23T07:02:40.738Z,58.30
2018-08-23T07:03:40.693Z,57.10
2018-08-23T07:04:40.712Z,55.10
2018-08-23T07:05:40.698Z,57.10
2018-08-23T07:06:40.671Z,56.90
2018-08-23T07:07:40.672Z,57.50
2018-08-23T07:08:40.659Z,56.40
2018-08-23T07:09:40.632Z,56.50
2018-08-23T07:10:40.619Z,58.10
2018-08-23T07:11:40.664Z,57.80
2018-08-23T07:12:40.594Z,58.50
2018-08-23T07:13:40.630Z,59.10
2018-08-23T07:14:40.602Z,58.10
2018-08-23T07:15:40.560Z,57.90
2018-08-23T07:16:40.558Z,59.20
2018-08-23T07:17:40.714Z,59.20
2018-08-23T07:18:40.534Z,57.20
2018-08-23T07:19:40.589Z,58.60
2018-08-23T07:20:40.514Z,57.50
2018-08-23T07:21:40.499Z,57.80
2018-08-23T07:22:40.496Z,57.30
2018-08-23T07:23:40.478Z,57.00
2018-08-23T07:24:40.539Z,57.10
2018-08-23T07:25:40.750Z,57.90
2018-08-23T07:26:40.490Z,57.80
2018-08-23T07:27:40.442Z,56.40
2018-08-23T07:28:40.440Z,57.30
2018-08-23T07:29:40.462Z,57.70
2018-08-23T07:30:40.412Z,57.70
2018-08-23T07:31:40.389Z,57.20
2018-08-23T07:32:40.457Z,56.60
2018-08-23T07:33:40.370Z,56.20
2018-08-23T07:34:40.366Z,55.40
2018-08-23T07:35:40.364Z,56.40
2018-08-23T07:36:40.360Z,56.30
2018-08-23T07:37:40.380Z,55.50
2018-08-23T07:38:40.311Z,56.20
2018-08-23T07:39:40.365Z,56.50
2018-08-23T07:40:40.328Z,56.10
2018-08-23T07:41:40.287Z,55.60
2018-08-23T07:42:40.276Z,55.80
2018-08-23T07:43:40.257Z,56.90
2018-08-23T07:44:40.249Z,56.10
2018-08-23T07:45:40.388Z,55.10
2018-08-23T07:46:40.429Z,55.40
2018-08-23T07:47:40.213Z,54.40
2018-08-23T07:48:40.363Z,55.80
2018-08-23T07:49:40.230Z,53.40
2018-08-23T07:50:40.207Z,53.40
2018-08-23T07:51:40.199Z,54.50
2018-08-23T07:52:40.187Z,52.90
2018-08-23T07:53:40.157Z,51.30
2018-08-23T07:54:40.158Z,51.60
2018-08-23T07:55:40.127Z,52.40
2018-08-23T07:56:40.122Z,51.50
2018-08-23T07:57:40.125Z,51.90
2018-08-23T07:58:40.102Z,51.30
2018-08-23T07:59:40.110Z,50.90
2018-08-23T08:00:40.077Z,51.10
2018-08-23T08:01:40.067Z,51.50
2018-08-23T08:02:40.103Z,53.80
2018-08-23T08:03:40.047Z,51.40
2018-08-23T08:04:40.058Z,50.90
2018-08-23T08:05:40.032Z,49.40
2018-08-23T08:06:40.013Z,51.70
2018-08-23T08:07:40.053Z,49.20
2018-08-23T08:08:40.057Z,49.10
2018-08-23T08:09:39.977Z,50.50
2018-08-23T08:10:40.018Z,48.40
2018-08-23T08:11:39.956Z,48.60
2018-08-23T08:12:39.952Z,49.60
2018-08-23T08:13:39.945Z,47.30
2018-08-23T08:14:40.012Z,45.90
2018-08-23T08:15:39.924Z,44.30
2018-08-23T08:16:39.910Z,44.20
2018-08-23T08:17:39.989Z,44.30
2018-08-23T08:18:39.883Z,43.00
2018-08-23T08:19:39.880Z,40.50
2018-08-23T08:20:39.861Z,41.80
2018-08-23T08:21:39.882Z,39.50
2018-08-23T08:22:39.887Z,39.20
2018-08-23T08:23:39.851Z,36.00
2018-08-23T08:24:39.826Z,34.00
2018-08-23T08:25:39.845Z,33.60
2018-08-23T08:26:39.809Z,33.40
2018-08-23T08:27:39.785Z,32.60
2018-08-23T08:28:39.807Z,34.30
2018-08-23T08:29:39.769Z,33.60
2018-08-23T08:30:39.754Z,33.20
2018-08-23T08:31:39.762Z,32.00
2018-08-23T08:32:39.734Z,32.20
2018-08-23T08:33:39.744Z,30.90
2018-08-23T08:34:39.747Z,31.60
2018-08-23T08:35:39.706Z,32.60
2018-08-23T08:36:39.693Z,32.90
2018-08-23T08:37:39.734Z,32.80
2018-08-23T08:38:39.674Z,32.30
2018-08-23T08:39:39.769Z,31.70
2018-08-23T08:40:39.678Z,32.20
2018-08-23T08:41:39.643Z,32.30
2018-08-23T08:42:39.635Z,32.70
2018-08-23T08:43:39.624Z,32.30
2018-08-23T08:44:39.612Z,33.50
2018-08-23T08:45:39.651Z,32.50
2018-08-23T08:46:39.598Z,32.70
2018-08-23T08:47:39.588Z,31.20
2018-08-23T08:48:39.579Z,30.80
2018-08-23T08:49:39.563Z,29.90
2018-08-23T08:50:39.600Z,28.10
2018-08-23T08:51:39.548Z,27.80
2018-08-23T08:52:39.550Z,26.90
2018-08-23T08:53:39.521Z,27.90
2018-08-23T08:54:39.524Z,28.40
2018-08-23T08:55:39.512Z,29.50
2018-08-23T08:56:39.814Z,28.70
2018-08-23T08:57:39.574Z,27.10
2018-08-23T08:58:39.494Z,27.40
2018-08-23T08:59:39.459Z,27.10
2018-08-23T09:00:39.472Z,26.80
2018-08-23T09:01:39.472Z,25.60
2018-08-23T09:02:39.722Z,26.50
2018-08-23T09:03:39.489Z,28.30
2018-08-23T09:04:39.413Z,27.30
2018-08-23T09:05:39.455Z,25.80
2018-08-23T09:06:39.408Z,27.00
2018-08-23T09:07:39.404Z,26.40
2018-08-23T09:08:39.370Z,27.40
2018-08-23T09:09:39.444Z,27.40
2018-08-23T09:10:39.360Z,27.70
2018-08-23T09:11:39.384Z,26.20
2018-08-23T09:12:39.461Z,26.70
2018-08-23T09:13:39.511Z,27.40
2018-08-23T09:14:39.324Z,27.00
2018-08-23T09:15:39.351Z,27.20
2018-08-23T09:16:39.407Z,26.00
2018-08-23T09:17:39.297Z,24.00
2018-08-23T09:18:39.289Z,25.20
2018-08-23T09:19:39.285Z,26.10
2018-08-23T09:20:39.418Z,24.20
2018-08-23T09:21:39.290Z,25.70
2018-08-23T09:22:39.306Z,24.20
2018-08-23T09:23:39.392Z,25.20
2018-08-23T09:24:39.272Z,22.60
2018-08-23T09:25:39.268Z,24.30
2018-08-23T09:26:39.270Z,23.50
2018-08-23T09:27:39.767Z,23.50
2018-08-23T09:28:39.328Z,24.00
2018-08-23T09:29:39.213Z,24.90
2018-08-23T09:30:39.237Z,24.00
2018-08-23T09:31:39.158Z,24.60
2018-08-23T09:32:39.191Z,25.20
2018-08-23T09:33:39.140Z,25.20
2018-08-23T09:34:39.159Z,24.90
2018-08-23T09:35:39.169Z,24.60
2018-08-23T09:36:39.123Z,24.60
2018-08-23T09:37:39.262Z,24.40
2018-08-23T09:38:39.110Z,25.10
2018-08-23T09:39:39.138Z,24.20
2018-08-23T09:40:39.077Z,23.80
2018-08-23T09:41:39.069Z,22.50
2018-08-23T09:42:39.058Z,24.00
2018-08-23T09:43:39.107Z,23.60
2018-08-23T09:44:39.109Z,23.60
2018-08-23T09:45:39.018Z,22.00
2018-08-23T09:46:39.051Z,23.10
2018-08-23T09:47:39.005Z,22.50
2018-08-23T09:48:39.717Z,18.90
2018-08-23T09:49:39.112Z,22.50
2018-08-23T09:50:39.017Z,21.30
2018-08-23T09:51:38.967Z,21.10
2018-08-23T09:52:39.036Z,23.40
2018-08-23T09:53:38.948Z,22.60
2018-08-23T09:54:38.936Z,22.30
2018-08-23T09:55:38.952Z,21.20
2018-08-23T09:56:38.961Z,20.40
2018-08-23T09:57:38.955Z,20.00
2018-08-23T09:58:38.899Z,20.70
2018-08-23T09:59:38.954Z,19.70
2018-08-23T10:00:38.946Z,20.70
2018-08-23T10:01:38.886Z,20.40
2018-08-23T10:02:38.876Z,18.50
2018-08-23T10:03:38.924Z,22.20
2018-08-23T10:04:38.867Z,21.20
2018-08-23T10:05:40.833Z,22.40
2018-08-23T10:06:38.827Z,21.70
2018-08-23T10:07:38.866Z,20.60
2018-08-23T10:08:38.820Z,20.00
2018-08-23T10:09:38.807Z,18.90
2018-08-23T10:10:39.081Z,17.60
2018-08-23T10:11:38.867Z,19.00
2018-08-23T10:12:38.769Z,16.40
2018-08-23T10:13:38.773Z,17.60
2018-08-23T10:14:38.921Z,16.80
2018-08-23T10:15:38.735Z,17.50
2018-08-23T10:16:38.786Z,17.20
2018-08-23T10:17:38.721Z,16.70
2018-08-23T10:18:38.728Z,15.70
2018-08-23T10:19:38.707Z,16.60
2018-08-23T10:20:38.803Z,16.30
2018-08-23T10:21:38.705Z,16.90
2018-08-23T10:22:38.672Z,17.10
2018-08-23T10:23:38.678Z,16.40
2018-08-23T10:24:38.659Z,15.30
2018-08-23T10:25:38.652Z,17.00
2018-08-23T10:26:38.723Z,16.40
2018-08-23T10:27:38.652Z,14.30
2018-08-23T10:28:38.647Z,14.40
2018-08-23T10:29:38.611Z,13.80
2018-08-23T10:30:38.600Z,13.10
2018-08-23T10:31:38.636Z,13.30
2018-08-23T10:32:38.625Z,13.60
2018-08-23T10:33:38.593Z,13.40
2018-08-23T10:34:38.635Z,14.90
2018-08-23T10:35:38.552Z,14.90
2018-08-23T10:36:38.540Z,15.70
2018-08-23T10:37:38.538Z,12.90
2018-08-23T10:38:38.525Z,12.90
2018-08-23T10:39:38.607Z,12.90
2018-08-23T10:40:38.535Z,13.10
2018-08-23T10:41:38.497Z,14.10
2018-08-23T10:42:38.486Z,14.60
2018-08-23T10:43:38.660Z,14.00
2018-08-23T10:44:38.543Z,14.30
2018-08-23T10:45:38.493Z,12.70
2018-08-23T10:46:38.488Z,12.10
2018-08-23T10:47:38.445Z,12.10
2018-08-23T10:48:38.534Z,11.50
2018-08-23T10:49:38.727Z,13.00
2018-08-23T10:50:38.564Z,12.50
2018-08-23T10:51:38.428Z,11.70
2018-08-23T10:52:38.432Z,13.20
2018-08-23T10:53:38.546Z,13.20
2018-08-23T10:54:38.564Z,11.50
2018-08-23T10:55:38.372Z,11.90
2018-08-23T10:56:38.370Z,12.20
2018-08-23T10:57:38.411Z,12.70
2018-08-23T10:58:38.351Z,12.90
2018-08-23T10:59:38.365Z,12.10
2018-08-23T11:00:38.331Z,12.80
2018-08-23T11:01:38.446Z,11.80
2018-08-23T11:02:38.309Z,12.60
2018-08-23T11:03:38.304Z,12.90
2018-08-23T11:04:38.322Z,12.80
2018-08-23T11:05:38.284Z,13.20
2018-08-23T11:06:38.326Z,11.40
2018-08-23T11:07:38.264Z,11.50
2018-08-23T11:08:38.253Z,13.30
2018-08-23T11:09:38.300Z,12.60
2018-08-23T11:10:38.264Z,11.80
2018-08-23T11:11:38.268Z,11.80
2018-08-23T11:12:38.266Z,11.00
2018-08-23T11:13:38.202Z,9.80
2018-08-23T11:14:38.218Z,9.60
2018-08-23T11:15:38.182Z,9.70
2018-08-23T11:16:38.244Z,11.10
2018-08-23T11:17:38.165Z,10.60
2018-08-23T11:18:38.154Z,10.80
2018-08-23T11:19:38.147Z,9.80
2018-08-23T11:20:38.135Z,9.30
2018-08-23T11:21:38.125Z,8.90
2018-08-23T11:22:38.150Z,9.80
2018-08-23T11:23:38.110Z,10.10
2018-08-23T11:24:38.108Z,8.30
2018-08-23T11:25:38.095Z,9.00
2018-08-23T11:26:38.141Z,9.10
2018-08-23T11:27:38.111Z,8.50
2018-08-23T11:28:38.067Z,8.30
2018-08-23T11:29:38.091Z,9.20
2018-08-23T11:30:38.044Z,8.90
2018-08-23T11:31:38.100Z,8.20
2018-08-23T11:32:38.036Z,8.00
2018-08-23T11:33:38.038Z,8.80
2018-08-23T11:34:38.020Z,8.90
2018-08-23T11:35:38.007Z,9.00
2018-08-23T11:36:38.090Z,8.60
2018-08-23T11:37:37.981Z,9.10
2018-08-23T11:38:37.990Z,10.10
2018-08-23T11:39:37.984Z,8.80
2018-08-23T11:40:37.952Z,9.60
2018-08-23T11:41:37.952Z,8.80
2018-08-23T11:42:37.960Z,8.60
2018-08-23T11:43:37.961Z,8.50
2018-08-23T11:44:37.918Z,8.90
2018-08-23T11:45:38.348Z,8.40
2018-08-23T11:46:38.811Z,9.00
2018-08-23T11:47:38.125Z,8.40
2018-08-23T11:48:37.937Z,8.50
2018-08-23T11:49:37.910Z,7.90
2018-08-23T11:50:38.013Z,8.30
2018-08-23T11:51:38.106Z,8.40
2018-08-23T11:54:05.782Z,7.60
2018-08-23T11:55:07.789Z,8.10
2018-08-23T11:58:27.529Z,7.00
2018-08-23T11:59:29.030Z,7.50
2018-08-23T12:02:04.081Z,7.10
2018-08-23T12:03:03.921Z,7.70
2018-08-23T12:06:03.652Z,7.50
2018-08-23T12:07:02.865Z,7.50
2018-08-23T12:08:02.824Z,8.70
2018-08-23T12:09:02.593Z,8.90
2018-08-23T12:10:04.558Z,9.10
2018-08-23T12:11:02.481Z,9.30
2018-08-23T12:12:03.620Z,9.50
2018-08-23T12:13:02.473Z,9.70
2018-08-23T12:14:02.590Z,10.30
2018-08-23T12:15:02.475Z,9.70
2018-08-23T12:16:02.573Z,9.60
2018-08-23T12:17:02.486Z,9.40
2018-08-23T12:18:02.507Z,8.70
2018-08-23T12:19:02.393Z,9.40
2018-08-23T12:20:02.353Z,8.50
2018-08-23T12:21:02.570Z,8.70
2018-08-23T12:22:02.318Z,9.50
2018-08-23T12:23:02.670Z,9.40
2018-08-23T12:24:02.335Z,8.60
2018-08-23T12:25:02.315Z,8.80
2018-08-23T12:26:02.362Z,7.90
2018-08-23T12:27:02.411Z,8.10
2018-08-23T12:28:02.288Z,8.40
2018-08-23T12:29:02.389Z,9.00
2018-08-23T12:30:02.359Z,8.30
2018-08-23T12:31:02.380Z,8.00
2018-08-23T12:32:02.246Z,8.00
2018-08-23T12:33:02.349Z,8.10
2018-08-23T12:34:02.468Z,8.80
2018-08-23T12:35:02.260Z,8.40
2018-08-23T12:36:02.201Z,7.80
2018-08-23T12:37:02.178Z,7.60
2018-08-23T12:38:02.211Z,7.90
2018-08-23T12:39:02.346Z,7.10
2018-08-23T12:41:14.458Z,5.60
2018-08-23T12:42:14.534Z,6.80
2018-08-23T12:43:14.129Z,7.80
2018-08-23T12:44:14.069Z,7.00
2018-08-23T12:45:14.297Z,7.70
2018-08-23T12:46:14.051Z,6.70
2018-08-23T12:47:14.023Z,8.10
2018-08-23T12:48:14.121Z,8.60
2018-08-23T12:49:13.974Z,7.90
2018-08-23T12:50:18.802Z,6.20
2018-08-23T12:52:46.147Z,6.10
2018-08-23T12:53:46.154Z,5.80
2018-08-23T12:55:03.931Z,5.70
2018-08-23T12:55:47.360Z,5.80
2018-08-23T12:57:56.806Z,5.90
2018-08-23T12:58:56.687Z,5.50
2018-08-23T12:59:56.651Z,5.60
2018-08-23T13:00:56.610Z,5.70
2018-08-23T13:01:56.895Z,5.30
2018-08-23T13:02:56.598Z,5.50
2018-08-23T13:03:56.534Z,5.30
2018-08-23T13:04:56.453Z,5.10
2018-08-23T13:06:04.531Z,4.90
2018-08-23T13:10:15.442Z,4.40
2018-08-23T13:11:05.309Z,4.80
2018-08-23T13:12:09.828Z,5.20
2018-08-23T13:13:05.268Z,5.30
2018-08-23T13:14:15.836Z,5.00
2018-08-23T13:15:05.295Z,5.40
2018-08-23T13:16:05.270Z,4.80
2018-08-23T13:17:06.805Z,4.80
2018-08-23T13:36:09.615Z,3.60
2018-08-23T13:37:09.629Z,4.60
2018-08-23T13:38:09.497Z,4.50
2018-08-23T13:39:09.430Z,4.60
2018-08-23T13:40:09.500Z,4.60
2018-08-23T13:41:09.494Z,4.90
2018-08-23T13:42:09.456Z,5.10
2018-08-23T13:43:09.423Z,4.80
2018-08-23T13:44:09.404Z,5.20
2018-08-23T13:45:09.480Z,5.00